Time;durP1;ratioP1;P1;durP2;ratioP2;P2;SDS_P1;SDS_P2;PMS_P1;PMS_P2;Temp;Humidity;BMP_temperature;BMP_pressure;BME280_temperature;BME280_humidity;BME280_pressure;Samples;Min_cycle;Max_cycle;Signal;HPM_P1;HPM_P2
2022/12/21 00:01:23;;;;;;;26.02;13.65;;;;;;;-2.29;100.00;101293.39;1721280;83;21433;-60
2022/12/21 00:03:53;;;;;;;25.45;13.58;;;;;;;-2.27;100.00;101290.33;1687491;83;21573;-59
2022/12/21 00:06:21;;;;;;;19.65;10.55;;;;;;;-2.24;100.00;101292.70;1694453;83;20943;-62
2022/12/21 00:08:51;;;;;;;17.82;9.65;;;;;;;-2.21;100.00;101282.34;1668854;85;20900;-62
2022/12/21 00:11:18;;;;;;;14.28;8.70;;;;;;;-2.16;100.00;101283.39;1639807;87;21084;-61
2022/12/21 00:13:45;;;;;;;12.37;8.13;;;;;;;-2.17;100.00;101280.92;1668902;85;21302;-61
2022/12/21 00:16:15;;;;;;;16.67;8.25;;;;;;;-2.15;100.00;101277.41;1639461;87;21034;-62
2022/12/21 00:18:42;;;;;;;12.88;7.03;;;;;;;-2.11;100.00;101271.23;1669108;85;21031;-61
2022/12/21 00:21:13;;;;;;;15.63;8.25;;;;;;;-2.07;100.00;101257.41;1695181;84;20896;-60
2022/12/21 00:23:42;;;;;;;14.23;8.05;;;;;;;-2.00;100.00;101264.31;1695047;84;21244;-62
2022/12/21 00:26:10;;;;;;;14.30;8.03;;;;;;;-1.97;100.00;101278.19;1694897;84;21441;-62
2022/12/21 00:28:39;;;;;;;13.88;6.90;;;;;;;-1.92;100.00;101272.88;1668295;84;21105;-61
2022/12/21 00:31:08;;;;;;;12.30;6.80;;;;;;;-1.89;100.00;101270.98;1695223;84;21027;-62
2022/12/21 00:33:36;;;;;;;10.93;5.20;;;;;;;-1.86;100.00;101273.36;1695246;84;21496;-61
2022/12/21 00:36:05;;;;;;;10.55;5.40;;;;;;;-1.82;100.00;101264.66;1668313;85;22360;-64
2022/12/21 00:38:32;;;;;;;10.28;5.05;;;;;;;-1.78;100.00;101248.69;1640318;87;21464;-61
2022/12/21 00:41:02;;;;;;;7.65;4.25;;;;;;;-1.75;100.00;101248.08;1668874;85;21017;-61
2022/12/21 00:43:30;;;;;;;9.63;4.45;;;;;;;-1.67;100.00;101246.86;1694728;84;21089;-63
2022/12/21 00:45:57;;;;;;;7.35;4.08;;;;;;;-1.63;100.00;101247.92;1694820;84;21326;-64
2022/12/21 00:48:26;;;;;;;8.23;4.40;;;;;;;-1.56;100.00;101244.57;1694843;84;21815;-61
2022/12/21 00:50:53;;;;;;;8.83;3.98;;;;;;;-1.53;100.00;101234.19;1668851;85;21280;-62
2022/12/21 00:53:21;;;;;;;8.48;4.40;;;;;;;-1.52;100.00;101229.44;1695038;84;20979;-63
2022/12/21 00:55:58;;;;;;;8.85;4.22;;;;;;;-1.50;100.00;101219.97;1694090;84;21540;-61
2022/12/21 00:58:26;;;;;;;6.87;4.10;;;;;;;-1.45;100.00;101210.77;1669084;85;21076;-59
2022/12/21 01:00:56;;;;;;;7.67;4.00;;;;;;;-1.41;100.00;101212.25;1640238;87;21296;-62
2022/12/21 01:03:23;;;;;;;7.50;4.00;;;;;;;-1.39;100.00;101211.27;1672793;84;21076;-62
2022/12/21 01:05:51;;;;;;;7.92;4.28;;;;;;;-1.37;100.00;101200.95;1727231;82;21434;-64
2022/12/21 01:08:19;;;;;;;6.65;3.70;;;;;;;-1.35;100.00;101195.30;1727895;82;21088;-60
2022/12/21 01:10:47;;;;;;;8.13;4.12;;;;;;;-1.33;100.00;101190.91;1728165;82;21120;-60
2022/12/21 01:13:15;;;;;;;6.60;3.45;;;;;;;-1.30;100.00;101200.98;1727327;82;20939;-63
2022/12/21 01:15:45;;;;;;;8.63;3.70;;;;;;;-1.30;100.00;101197.97;1727301;82;21506;-62
2022/12/21 01:18:13;;;;;;;6.55;3.42;;;;;;;-1.27;100.00;101188.86;1727888;82;21417;-60
2022/12/21 01:20:48;;;;;;;6.72;2.98;;;;;;;-1.23;100.00;101189.05;1727783;82;21006;-60
2022/12/21 01:23:20;;;;;;;7.87;3.35;;;;;;;-1.20;100.00;101183.41;1727703;82;21018;-60
2022/12/21 01:25:48;;;;;;;6.42;3.47;;;;;;;-1.18;100.00;101176.46;1728010;82;21519;-60
2022/12/21 01:28:16;;;;;;;7.50;3.47;;;;;;;-1.17;100.00;101172.56;1727929;82;21473;-60
2022/12/21 01:30:44;;;;;;;5.00;2.90;;;;;;;-1.15;100.00;101166.89;1728006;82;21487;-60
2022/12/21 01:33:18;;;;;;;6.08;3.25;;;;;;;-1.13;100.00;101163.80;1727728;82;21029;-61
2022/12/21 01:35:46;;;;;;;6.17;3.40;;;;;;;-1.09;100.00;101154.22;1727733;82;21013;-60
2022/12/21 01:38:14;;;;;;;6.33;3.37;;;;;;;-1.06;100.00;101145.92;1727851;82;21195;-59
2022/12/21 01:40:42;;;;;;;6.53;3.15;;;;;;;-1.05;100.00;101144.19;1727975;82;20939;-60
2022/12/21 01:43:20;;;;;;;6.55;3.15;;;;;;;-1.04;100.00;101158.62;1727082;82;20939;-64
2022/12/21 01:45:51;;;;;;;6.25;3.37;;;;;;;-1.03;100.00;101155.96;1724817;82;21100;-60
2022/12/21 01:48:19;;;;;;;6.58;3.17;;;;;;;-1.04;100.00;101133.03;1728816;82;21013;-61
2022/12/21 01:50:56;;;;;;;6.87;3.80;;;;;;;-1.04;100.00;101122.80;1728612;82;21371;-63
2022/12/21 01:53:31;;;;;;;5.45;3.30;;;;;;;-1.03;100.00;101120.59;1728702;82;21549;-61
2022/12/21 01:56:02;;;;;;;6.67;3.33;;;;;;;-1.04;100.00;101104.88;1728327;82;20983;-60
2022/12/21 01:58:29;;;;;;;7.00;3.30;;;;;;;-1.05;100.00;101127.09;1728808;82;20907;-61
2022/12/21 02:00:58;;;;;;;6.33;3.35;;;;;;;-1.02;100.00;101128.66;1727639;82;21054;-62
2022/12/21 02:03:36;;;;;;;6.03;3.37;;;;;;;-1.02;100.00;101138.90;1728558;82;21465;-61
2022/12/21 02:06:07;;;;;;;7.05;3.37;;;;;;;-1.02;100.00;101126.92;1728385;82;21109;-60
2022/12/21 02:08:35;;;;;;;6.58;3.02;;;;;;;-1.03;100.00;101116.76;1727537;82;21513;-64
2022/12/21 02:11:02;;;;;;;6.65;3.40;;;;;;;-1.04;100.00;101092.09;1728825;82;21394;-60
2022/12/21 02:13:29;;;;;;;6.35;3.10;;;;;;;-1.02;100.00;101104.36;1728656;82;21191;-60
2022/12/21 02:16:20;;;;;;;6.62;3.37;;;;;;;-1.01;100.00;101112.39;1728671;81;21220;-60
2022/12/21 02:19:16;;;;;;;6.83;3.40;;;;;;;-0.99;100.00;101097.75;1728294;82;21763;-59
2022/12/21 02:21:48;;;;;;;6.50;3.30;;;;;;;-0.99;100.00;101088.34;1727871;82;20998;-63
2022/12/21 02:24:29;;;;;;;7.67;3.35;;;;;;;-0.99;100.00;101084.50;1708742;82;21556;-60
2022/12/21 02:27:23;;;;;;;7.22;3.58;;;;;;;-1.00;100.00;101073.91;1727972;82;21961;-60
2022/12/21 02:30:19;;;;;;;5.92;3.42;;;;;;;-0.99;100.00;101061.47;1728829;82;21879;-60
2022/12/21 02:33:25;;;;;;;5.40;3.10;;;;;;;-0.97;100.00;101079.31;1728406;82;21028;-61
2022/12/21 02:36:03;;;;;;;6.47;3.40;;;;;;;-0.97;100.00;101094.66;1728354;82;20942;-60
2022/12/21 02:39:17;;;;;;;7.53;3.75;;;;;;;-0.95;100.00;101086.43;1724596;82;21076;-60
2022/12/21 02:42:04;;;;;;;8.13;3.67;;;;;;;-0.94;100.00;101084.27;1727209;82;21010;-60
2022/12/21 02:44:49;;;;;;;5.15;3.15;;;;;;;-0.93;100.00;101087.18;1727970;81;21581;-58
2022/12/21 02:47:24;;;;;;;6.22;3.30;;;;;;;-0.91;100.00;101067.88;1727519;82;21484;-60
2022/12/21 02:50:00;;;;;;;6.00;3.45;;;;;;;-0.91;100.00;101064.05;1728083;82;20982;-59
2022/12/21 02:52:47;;;;;;;6.17;3.42;;;;;;;-0.93;100.00;101064.14;1728618;82;21054;-59
2022/12/21 02:55:14;;;;;;;6.85;3.58;;;;;;;-0.92;100.00;101063.22;1729008;82;21644;-60
2022/12/21 02:57:43;;;;;;;6.78;3.72;;;;;;;-0.91;100.00;101053.80;1729189;82;21244;-60
2022/12/21 03:00:17;;;;;;;7.50;3.83;;;;;;;-0.91;100.00;101040.58;1728663;82;20910;-61
2022/12/21 03:06:31;;;;;;;6.37;3.22;;;;;;;-0.91;100.00;101026.94;1721385;82;21061;-59
2022/12/21 03:09:29;;;;;;;6.45;3.33;;;;;;;-0.91;100.00;101008.59;1721178;82;20919;-61
2022/12/21 03:12:19;;;;;;;7.00;3.40;;;;;;;-0.91;100.00;101047.41;1696212;83;21331;-60
2022/12/21 03:15:07;;;;;;;8.28;3.37;;;;;;;-0.93;100.00;101049.25;1721302;83;20962;-60
2022/12/21 03:17:42;;;;;;;5.97;3.10;;;;;;;-0.92;100.00;101044.03;1721393;83;21054;-59
2022/12/21 03:20:27;;;;;;;6.58;3.70;;;;;;;-0.94;100.00;101057.39;1721328;83;21430;-60
2022/12/21 03:23:10;;;;;;;6.58;3.50;;;;;;;-0.94;100.00;101040.75;1721540;82;21837;-59
2022/12/21 03:25:54;;;;;;;7.72;3.60;;;;;;;-0.94;100.00;101044.59;1721426;83;22537;-59
2022/12/21 03:28:25;;;;;;;7.37;3.95;;;;;;;-0.94;100.00;101040.75;1721713;83;21064;-60
2022/12/21 03:30:54;;;;;;;6.45;3.12;;;;;;;-0.95;100.00;101044.20;1722003;82;20974;-60
2022/12/21 03:33:24;;;;;;;6.92;3.45;;;;;;;-0.95;100.00;101041.64;1720908;83;20935;-59
2022/12/21 03:36:04;;;;;;;6.58;3.12;;;;;;;-0.96;100.00;101037.45;1721322;83;21559;-61
2022/12/21 03:38:39;;;;;;;5.40;3.22;;;;;;;-0.96;100.00;101029.77;1721019;82;21249;-60
2022/12/21 03:41:10;;;;;;;6.83;3.95;;;;;;;-0.95;100.00;101035.25;1720935;83;21437;-60
2022/12/21 03:43:37;;;;;;;6.22;3.12;;;;;;;-0.94;100.00;101028.42;1721330;82;20986;-63
2022/12/21 03:46:16;;;;;;;8.53;3.67;;;;;;;-0.95;100.00;101023.73;1721461;82;21397;-60
2022/12/21 03:49:00;;;;;;;7.22;3.10;;;;;;;-0.94;100.00;101027.14;1720729;83;20993;-60
2022/12/21 03:51:43;;;;;;;5.78;2.83;;;;;;;-0.93;100.00;101025.76;1719573;83;21293;-60
2022/12/21 03:54:33;;;;;;;5.85;3.45;;;;;;;-0.91;100.00;101019.26;1721625;83;21002;-59
2022/12/21 03:57:01;;;;;;;5.60;3.02;;;;;;;-0.89;100.00;101022.10;1720848;82;20914;-61
2022/12/21 03:59:29;;;;;;;5.78;3.10;;;;;;;-0.87;100.00;101019.02;1720804;83;21073;-61
2022/12/21 04:02:10;;;;;;;6.75;3.02;;;;;;;-0.86;100.00;101014.70;1721540;83;21517;-59
2022/12/21 04:05:17;;;;;;;6.45;2.98;;;;;;;-0.83;100.00;101010.23;1723055;82;21232;-63
2022/12/21 04:07:46;;;;;;;7.20;3.12;;;;;;;-0.81;100.00;101003.73;1724682;82;20990;-59
2022/12/21 04:10:16;;;;;;;5.22;3.00;;;;;;;-0.78;100.00;101006.11;1727748;82;21522;-60
2022/12/21 04:12:46;;;;;;;6.58;2.67;;;;;;;-0.72;100.00;100999.79;1726983;82;21562;-59
2022/12/21 04:15:16;;;;;;;5.92;3.00;;;;;;;-0.68;100.00;101002.53;1728439;82;20922;-59
2022/12/21 04:17:47;;;;;;;6.85;3.50;;;;;;;-0.64;100.00;101004.02;1728715;82;21221;-59
2022/12/21 04:20:22;;;;;;;6.03;3.27;;;;;;;-0.61;100.00;101007.65;1727551;82;21460;-63
2022/12/21 04:28:29;;;;;;;8.80;3.55;;;;;;;-0.53;100.00;100995.20;1728991;82;21050;-59
2022/12/21 04:30:58;;;;;;;5.60;2.95;;;;;;;-0.52;100.00;101003.27;1728911;82;21861;-60
2022/12/21 04:33:26;;;;;;;7.97;3.65;;;;;;;-0.52;100.00;100999.42;1727799;82;21071;-62
2022/12/21 04:38:41;;;;;;;7.03;3.45;;;;;;;-0.52;100.00;101001.98;1728073;82;20910;-60
2022/12/21 04:41:09;;;;;;;6.28;3.40;;;;;;;-0.52;100.00;101001.98;1727685;82;21534;-60
2022/12/21 04:43:37;;;;;;;7.03;3.05;;;;;;;-0.51;100.00;100997.22;1727159;82;21156;-62
2022/12/21 04:46:11;;;;;;;6.85;3.25;;;;;;;-0.51;100.00;100997.22;1728278;82;22005;-61
2022/12/21 04:48:38;;;;;;;6.87;3.12;;;;;;;-0.50;100.00;101003.98;1727773;82;20966;-63
2022/12/21 04:51:11;;;;;;;9.38;3.52;;;;;;;-0.48;100.00;101002.16;1727755;82;21481;-61
2022/12/21 04:53:39;;;;;;;5.33;2.65;;;;;;;-0.45;100.00;101008.39;1726501;82;20998;-60
2022/12/21 04:56:07;;;;;;;5.87;2.77;;;;;;;-0.43;100.00;101016.78;1727776;82;21290;-60
2022/12/21 04:58:34;;;;;;;6.20;3.10;;;;;;;-0.40;100.00;101017.06;1727214;82;20994;-64
2022/12/21 05:01:02;;;;;;;7.25;2.87;;;;;;;-0.40;100.00;101011.94;1727779;82;20943;-59
2022/12/21 05:03:29;;;;;;;6.17;2.95;;;;;;;-0.40;100.00;101016.59;1702893;82;21038;-61
2022/12/21 05:05:58;;;;;;;5.65;2.80;;;;;;;-0.38;100.00;101016.06;1717123;82;21402;-59
2022/12/21 05:08:26;;;;;;;5.08;2.60;;;;;;;-0.36;100.00;101014.21;1711906;82;21177;-59
2022/12/21 05:10:54;;;;;;;7.55;3.30;;;;;;;-0.34;100.00;101020.52;1680284;85;21074;-61
2022/12/21 05:13:21;;;;;;;5.55;3.17;;;;;;;-0.33;100.00;101016.59;1710675;83;21407;-61
2022/12/21 05:15:49;;;;;;;7.70;3.80;;;;;;;-0.31;100.00;101016.48;1711405;83;21061;-59
2022/12/21 05:18:17;;;;;;;8.35;3.55;;;;;;;-0.31;100.00;101004.50;1681472;85;21541;-59
2022/12/21 05:20:44;;;;;;;7.50;2.90;;;;;;;-0.31;100.00;101001.94;1710998;83;21145;-63
2022/12/21 05:23:12;;;;;;;5.72;2.92;;;;;;;-0.30;100.00;101002.32;1710691;83;20935;-60
2022/12/21 05:25:39;;;;;;;8.30;3.58;;;;;;;-0.29;100.00;101000.58;1685288;84;22054;-59
2022/12/21 05:28:06;;;;;;;6.75;3.25;;;;;;;-0.31;100.00;100996.81;1711617;83;21474;-60
2022/12/21 05:30:34;;;;;;;6.40;3.40;;;;;;;-0.30;100.00;100997.20;1712047;83;20970;-59
2022/12/21 05:33:02;;;;;;;7.40;3.72;;;;;;;-0.29;100.00;100998.83;1711256;83;21098;-64
2022/12/21 05:35:29;;;;;;;6.83;3.50;;;;;;;-0.26;100.00;101005.52;1681387;85;21082;-59
2022/12/21 05:37:56;;;;;;;7.92;3.67;;;;;;;-0.25;100.00;101002.84;1711602;83;21062;-60
2022/12/21 05:40:25;;;;;;;7.12;3.65;;;;;;;-0.22;100.00;100995.91;1711900;83;20997;-59
2022/12/21 05:42:52;;;;;;;7.55;3.80;;;;;;;-0.20;100.00;100999.17;1681530;85;21043;-60
2022/12/21 05:45:19;;;;;;;7.15;4.30;;;;;;;-0.19;100.00;101000.81;1710600;83;21299;-64
2022/12/21 05:47:47;;;;;;;7.08;4.15;;;;;;;-0.18;100.00;101003.76;1711957;83;20998;-59
2022/12/21 05:50:14;;;;;;;7.12;3.87;;;;;;;-0.16;100.00;100998.88;1681787;84;21064;-59
2022/12/21 05:52:41;;;;;;;8.43;4.47;;;;;;;-0.15;100.00;100998.42;1711997;83;21397;-62
2022/12/21 05:55:09;;;;;;;8.70;4.45;;;;;;;-0.13;100.00;101003.00;1712066;83;21014;-64
2022/12/21 05:57:36;;;;;;;9.55;4.85;;;;;;;-0.12;100.00;101003.36;1681053;84;21231;-65
2022/12/21 06:00:05;;;;;;;7.60;3.58;;;;;;;-0.11;100.00;101011.44;1711444;83;21006;-61
2022/12/21 06:02:34;;;;;;;7.17;3.72;;;;;;;-0.09;100.00;101013.42;1710651;83;21496;-61
2022/12/21 06:05:02;;;;;;;7.67;4.33;;;;;;;-0.08;100.00;101011.22;1711428;83;21508;-66
2022/12/21 06:07:30;;;;;;;6.65;3.15;;;;;;;-0.06;100.00;101019.65;1711042;83;21516;-61
2022/12/21 06:09:57;;;;;;;7.53;4.58;;;;;;;-0.05;100.00;101013.13;1710916;83;22182;-62
2022/12/21 06:12:25;;;;;;;8.00;4.58;;;;;;;-0.02;100.00;101022.38;1711692;83;21525;-61
2022/12/21 06:14:52;;;;;;;8.30;4.05;;;;;;;0.01;100.00;101020.91;1681562;85;21023;-61
2022/12/21 06:17:21;;;;;;;8.20;4.72;;;;;;;0.03;100.00;101023.36;1710961;83;20883;-60
2022/12/21 06:19:49;;;;;;;9.43;4.05;;;;;;;0.06;100.00;101027.02;1710965;83;21426;-60
2022/12/21 06:22:16;;;;;;;7.85;4.50;;;;;;;0.08;100.00;101032.42;1681221;85;22200;-59
2022/12/21 06:24:43;;;;;;;7.25;3.85;;;;;;;0.12;100.00;101032.59;1711311;83;21293;-59
2022/12/21 06:27:11;;;;;;;9.65;5.30;;;;;;;0.14;100.00;101025.61;1711373;83;20919;-61
2022/12/21 06:29:38;;;;;;;9.23;4.83;;;;;;;0.17;100.00;101033.58;1681017;85;21094;-61
2022/12/21 06:32:05;;;;;;;11.12;4.85;;;;;;;0.19;100.00;101033.01;1711576;83;21793;-59
2022/12/21 06:34:33;;;;;;;8.95;4.78;;;;;;;0.22;100.00;101032.81;1711711;83;22246;-58
2022/12/21 06:37:00;;;;;;;9.40;4.95;;;;;;;0.24;100.00;101030.53;1680957;85;21020;-59
2022/12/21 06:39:28;;;;;;;7.97;4.30;;;;;;;0.26;100.00;101038.11;1690465;83;20923;-62
2022/12/21 06:41:55;;;;;;;9.53;4.87;;;;;;;0.29;100.00;101032.80;1711257;83;21021;-60
2022/12/21 06:44:23;;;;;;;8.83;4.97;;;;;;;0.32;100.00;101044.15;1681356;85;21129;-58
2022/12/21 06:46:50;;;;;;;8.98;4.47;;;;;;;0.33;100.00;101043.22;1711854;83;21145;-58
2022/12/21 06:49:17;;;;;;;8.00;4.58;;;;;;;0.36;100.00;101043.49;1710738;83;21461;-60
2022/12/21 06:51:44;;;;;;;7.05;4.20;;;;;;;0.37;100.00;101040.00;1681540;84;22209;-59
2022/12/21 06:54:12;;;;;;;6.67;3.98;;;;;;;0.40;100.00;101042.38;1710809;83;21492;-58
2022/12/21 06:56:39;;;;;;;9.35;4.53;;;;;;;0.40;100.00;101045.76;1711546;83;21096;-58
2022/12/21 06:59:08;;;;;;;8.35;4.65;;;;;;;0.41;100.00;101044.02;1680991;85;21170;-62
2022/12/21 07:01:35;;;;;;;10.13;5.08;;;;;;;0.43;100.00;101037.88;1711388;83;21565;-58
2022/12/21 07:04:03;;;;;;;7.20;4.45;;;;;;;0.44;100.00;101036.13;1710578;83;21070;-59
2022/12/21 07:06:31;;;;;;;8.75;4.90;;;;;;;0.48;100.00;101040.14;1690644;84;21682;-58
2022/12/21 07:08:58;;;;;;;9.68;5.15;;;;;;;0.50;100.00;101035.75;1698463;84;21002;-62
2022/12/21 07:11:27;;;;;;;9.93;5.20;;;;;;;0.54;100.00;101037.66;1698278;84;21293;-58
2022/12/21 07:13:55;;;;;;;7.60;4.58;;;;;;;0.54;100.00;101029.95;1698360;84;21047;-61
2022/12/21 07:16:22;;;;;;;9.33;5.05;;;;;;;0.56;100.00;101030.20;1698844;84;22137;-59
2022/12/21 07:18:50;;;;;;;11.35;5.42;;;;;;;0.58;100.00;101035.25;1698477;84;21007;-63
2022/12/21 07:21:19;;;;;;;9.60;5.25;;;;;;;0.60;100.00;101032.92;1697896;84;20986;-59
2022/12/21 07:23:46;;;;;;;10.58;5.17;;;;;;;0.62;100.00;101032.84;1698399;84;21926;-59
2022/12/21 07:26:16;;;;;;;12.18;5.47;;;;;;;0.64;100.00;101034.83;1697485;84;21507;-59
2022/12/21 07:28:47;;;;;;;11.80;5.55;;;;;;;0.68;100.00;101031.99;1698402;84;22085;-58
2022/12/21 07:31:18;;;;;;;10.25;5.55;;;;;;;0.69;100.00;101028.49;1698760;84;21068;-58
2022/12/21 07:33:45;;;;;;;11.85;5.83;;;;;;;0.73;100.00;101033.78;1698327;84;21503;-58
2022/12/21 07:36:13;;;;;;;11.35;5.97;;;;;;;0.78;100.00;101023.21;1698037;84;21298;-59
2022/12/21 07:38:41;;;;;;;9.43;5.20;;;;;;;0.83;100.00;101021.16;1698501;84;21367;-59
2022/12/21 07:41:10;;;;;;;9.15;4.53;;;;;;;0.87;100.00;101023.91;1698232;84;21064;-58
2022/12/21 07:43:37;;;;;;;8.78;5.00;;;;;;;0.91;100.00;101016.80;1698402;84;21019;-58
2022/12/21 07:46:21;;;;;;;7.85;4.05;;;;;;;0.97;100.00;101017.68;1695361;84;21113;-58
2022/12/21 07:48:49;;;;;;;7.97;4.28;;;;;;;1.02;100.00;101020.75;1697689;84;21305;-60
2022/12/21 07:51:18;;;;;;;8.53;4.58;;;;;;;1.06;100.00;101011.10;1698557;84;21101;-59
2022/12/21 07:53:46;;;;;;;8.20;4.30;;;;;;;1.09;100.00;101014.75;1698419;84;21006;-62
2022/12/21 07:56:15;;;;;;;8.03;4.05;;;;;;;1.13;100.00;101016.19;1698350;84;21067;-59
2022/12/21 07:58:43;;;;;;;7.95;4.22;;;;;;;1.15;100.00;101013.06;1697901;84;22018;-59
2022/12/21 08:01:12;;;;;;;8.78;4.50;;;;;;;1.18;100.00;101011.11;1698781;84;21978;-58
2022/12/21 08:03:41;;;;;;;8.78;4.90;;;;;;;1.18;100.00;101013.68;1698661;84;21023;-58
2022/12/21 08:06:08;;;;;;;7.80;5.05;;;;;;;1.17;100.00;101016.34;1694720;84;20900;-61
2022/12/21 08:08:37;;;;;;;10.70;4.83;;;;;;;1.14;100.00;101008.86;1686474;84;21491;-58
2022/12/21 08:11:07;;;;;;;10.00;5.12;;;;;;;1.12;100.00;101013.27;1691326;84;21101;-58
2022/12/21 08:13:34;;;;;;;8.28;5.08;;;;;;;1.05;100.00;101009.00;1679605;85;21328;-58
2022/12/21 08:16:04;;;;;;;9.98;5.20;;;;;;;1.00;100.00;101007.22;1691573;84;20927;-61
2022/12/21 08:18:32;;;;;;;9.98;5.47;;;;;;;0.99;100.00;101004.77;1690945;84;20916;-58
2022/12/21 08:20:59;;;;;;;10.08;5.20;;;;;;;1.00;100.00;100998.70;1679542;85;21353;-58
2022/12/21 08:23:26;;;;;;;9.85;4.72;;;;;;;0.97;100.00;100999.24;1691681;84;21065;-58
2022/12/21 08:25:54;;;;;;;8.70;4.87;;;;;;;0.97;100.00;100998.43;1679843;85;21224;-58
2022/12/21 08:28:21;;;;;;;8.50;4.78;;;;;;;0.96;100.00;100993.77;1691079;84;21328;-62
2022/12/21 08:30:48;;;;;;;8.20;5.28;;;;;;;0.98;100.00;100988.52;1679536;85;21535;-58
2022/12/21 08:33:16;;;;;;;8.08;4.80;;;;;;;1.01;100.00;100992.16;1691419;84;21086;-57
2022/12/21 08:35:43;;;;;;;8.53;5.15;;;;;;;1.03;100.00;100991.61;1679818;85;21047;-59
2022/12/21 08:38:11;;;;;;;10.80;5.90;;;;;;;1.04;100.00;100986.83;1690887;84;21156;-58
2022/12/21 08:40:38;;;;;;;10.40;5.85;;;;;;;1.08;100.00;100997.71;1678566;85;22397;-60
2022/12/21 08:43:07;;;;;;;11.00;6.45;;;;;;;1.13;100.00;100995.17;1691518;84;21064;-58
2022/12/21 08:45:35;;;;;;;12.98;6.83;;;;;;;1.15;100.00;100990.77;1679691;85;21067;-58
2022/12/21 08:48:02;;;;;;;8.75;5.10;;;;;;;1.19;100.00;100984.50;1691702;84;20947;-57
2022/12/21 08:50:30;;;;;;;8.05;4.83;;;;;;;1.23;100.00;100975.31;1678777;85;21266;-62
2022/12/21 08:52:57;;;;;;;9.13;4.85;;;;;;;1.27;100.00;100972.89;1691840;84;21459;-60
2022/12/21 08:55:25;;;;;;;9.48;5.53;;;;;;;1.31;100.00;100980.73;1679877;85;21055;-60
2022/12/21 08:57:52;;;;;;;9.18;5.75;;;;;;;1.32;100.00;100973.38;1691445;84;21019;-60
2022/12/21 09:00:20;;;;;;;10.15;5.80;;;;;;;1.31;100.00;100963.58;1679769;85;20960;-63
2022/12/21 09:02:47;;;;;;;9.33;5.65;;;;;;;1.29;100.00;100963.31;1691418;84;21767;-60
2022/12/21 09:05:15;;;;;;;9.53;5.25;;;;;;;1.27;100.00;100959.58;1679840;85;20987;-57
2022/12/21 09:07:43;;;;;;;10.85;5.90;;;;;;;1.24;100.00;100957.69;1721107;82;21022;-58
2022/12/21 09:10:11;;;;;;;10.15;6.30;;;;;;;1.22;100.00;100960.37;1728500;82;21081;-58
2022/12/21 09:12:38;;;;;;;11.55;5.08;;;;;;;1.20;100.00;100955.32;1727837;82;20930;-59
2022/12/21 09:15:07;;;;;;;10.20;6.22;;;;;;;1.19;100.00;100954.97;1728532;82;22271;-58
2022/12/21 09:17:35;;;;;;;11.15;6.60;;;;;;;1.18;100.00;100955.91;1728458;82;20874;-58
2022/12/21 09:20:02;;;;;;;12.15;6.60;;;;;;;1.20;100.00;100951.47;1728372;82;21060;-58
2022/12/21 09:22:29;;;;;;;11.08;6.25;;;;;;;1.21;100.00;100948.00;1726722;82;20982;-62
2022/12/21 09:24:57;;;;;;;10.70;6.10;;;;;;;1.26;100.00;100953.28;1727844;82;21537;-58
2022/12/21 09:27:24;;;;;;;12.43;6.22;;;;;;;1.27;100.00;100935.65;1728038;82;21765;-58
2022/12/21 09:29:51;;;;;;;10.08;5.92;;;;;;;1.32;100.00;100937.42;1728212;82;21424;-58
2022/12/21 09:32:19;;;;;;;10.23;6.17;;;;;;;1.37;100.00;100932.81;1727253;82;21018;-58
2022/12/21 09:34:46;;;;;;;10.82;6.25;;;;;;;1.39;100.00;100933.03;1726631;82;20965;-59
2022/12/21 09:37:14;;;;;;;11.30;6.85;;;;;;;1.44;100.00;100931.45;1727956;82;21001;-58
2022/12/21 09:39:41;;;;;;;11.80;6.72;;;;;;;1.50;100.00;100931.47;1727712;82;21263;-58
2022/12/21 09:42:28;;;;;;;11.97;6.70;;;;;;;1.54;100.00;100929.86;1727100;82;21425;-59
2022/12/21 09:45:06;;;;;;;11.45;6.67;;;;;;;1.59;100.00;100930.38;1728082;82;21342;-58
2022/12/21 09:47:42;;;;;;;11.25;7.05;;;;;;;1.67;100.00;100931.94;1727777;82;21034;-62
2022/12/21 09:50:19;;;;;;;11.55;6.40;;;;;;;1.75;100.00;100931.39;1727914;82;21323;-59
2022/12/21 09:52:51;;;;;;;11.25;6.47;;;;;;;1.85;100.00;100927.67;1728218;82;22127;-59
2022/12/21 09:55:21;;;;;;;12.43;7.40;;;;;;;1.93;100.00;100922.36;1726726;82;21060;-61
2022/12/21 09:57:53;;;;;;;14.58;7.33;;;;;;;2.02;100.00;100917.48;1727580;82;21489;-59
2022/12/21 10:00:22;;;;;;;12.73;8.05;;;;;;;2.10;100.00;100921.59;1727550;82;21090;-59
2022/12/21 10:03:11;;;;;;;13.72;7.05;;;;;;;2.17;100.00;100912.03;1728243;82;21001;-59
2022/12/21 10:06:05;;;;;;;12.78;7.22;;;;;;;2.22;100.00;100905.72;1727150;82;21398;-62
2022/12/21 10:08:52;;;;;;;10.65;6.40;;;;;;;2.30;100.00;100907.27;1727171;82;20973;-59
2022/12/21 10:11:45;;;;;;;10.65;6.47;;;;;;;2.35;100.00;100898.72;1727545;82;21072;-59
2022/12/21 10:14:44;;;;;;;11.90;6.70;;;;;;;2.40;100.00;100890.22;1727952;82;21380;-58
2022/12/21 10:17:29;;;;;;;9.93;5.78;;;;;;;2.44;100.00;100897.59;1728246;82;21480;-59
2022/12/21 10:20:17;;;;;;;12.90;6.62;;;;;;;2.48;100.00;100897.36;1727535;82;21224;-58
2022/12/21 10:22:48;;;;;;;10.23;6.00;;;;;;;2.52;100.00;100889.29;1726767;82;21735;-62
2022/12/21 10:25:20;;;;;;;;;;;;;;;2.54;100.00;100890.45;1730663;82;20990;-58
2022/12/21 10:28:41;;;;;;;17.10;7.33;;;;;;;2.59;100.00;100885.32;1727270;82;20439;-59
2022/12/21 10:31:10;;;;;;;10.55;5.58;;;;;;;2.62;100.00;100886.39;1728006;82;20938;-61
2022/12/21 10:33:41;;;;;;;19.37;9.98;;;;;;;2.59;100.00;100891.75;1728249;82;22243;-58
2022/12/21 10:36:16;;;;;;;17.25;8.70;;;;;;;2.61;100.00;100888.61;1727470;82;21042;-62
2022/12/21 10:38:45;;;;;;;17.62;9.10;;;;;;;2.62;100.00;100894.11;1728089;81;21096;-58
2022/12/21 10:41:19;;;;;;;16.97;9.65;;;;;;;2.62;100.00;100885.56;1727242;82;21495;-59
2022/12/21 10:43:48;;;;;;;20.75;10.80;;;;;;;2.62;100.00;100882.52;1728352;82;20987;-58
2022/12/21 10:46:18;;;;;;;18.42;10.90;;;;;;;2.65;100.00;100881.02;1727721;82;21436;-58
2022/12/21 10:48:47;;;;;;;20.27;10.75;;;;;;;2.66;100.00;100885.21;1727479;82;21009;-61
2022/12/21 10:51:29;;;;;;;15.45;9.05;;;;;;;2.70;100.00;100875.50;1727747;82;20986;-58
2022/12/21 10:54:05;;;;;;;14.25;7.67;;;;;;;2.67;100.00;100879.12;1726626;82;21640;-59
2022/12/21 10:56:36;;;;;;;15.40;7.67;;;;;;;2.64;100.00;100878.06;1727879;82;20965;-61
2022/12/21 10:59:13;;;;;;;14.10;8.13;;;;;;;2.61;100.00;100880.89;1728273;82;21214;-58
2022/12/21 11:01:40;;;;;;;12.80;7.50;;;;;;;2.57;100.00;100875.59;1727463;82;21101;-62
2022/12/21 11:04:24;;;;;;;14.95;8.33;;;;;;;2.53;100.00;100873.38;1727456;82;21099;-59
2022/12/21 11:07:01;;;;;;;18.30;9.75;;;;;;;2.51;100.00;100877.37;1727995;82;21077;-58
2022/12/21 11:09:39;;;;;;;16.02;8.65;;;;;;;2.53;100.00;100874.66;1728426;82;21052;-62
2022/12/21 11:12:24;;;;;;;21.75;11.08;;;;;;;2.52;100.00;100874.32;1727083;82;21924;-58
2022/12/21 11:14:52;;;;;;;14.75;8.60;;;;;;;2.51;100.00;100873.98;1728042;82;20982;-58
2022/12/21 11:17:26;;;;;;;10.53;6.25;;;;;;;2.55;100.00;100877.48;1727396;82;20946;-62
2022/12/21 11:20:07;;;;;;;11.45;6.72;;;;;;;2.57;100.00;100874.31;1727268;82;21069;-58
2022/12/21 11:22:35;;;;;;;10.82;6.87;;;;;;;2.59;100.00;100877.60;1728362;82;20985;-58
2022/12/21 11:25:02;;;;;;;10.90;6.60;;;;;;;2.61;100.00;100870.59;1702658;82;21154;-61
2022/12/21 11:27:33;;;;;;;11.73;6.95;;;;;;;2.67;100.00;100868.01;1727431;82;21457;-61
2022/12/21 11:30:07;;;;;;;13.95;8.38;;;;;;;2.73;100.00;100862.41;1703690;82;21040;-58
2022/12/21 11:32:37;;;;;;;12.50;7.53;;;;;;;2.79;100.00;100864.97;1728062;82;21006;-59
2022/12/21 11:35:05;;;;;;;13.32;8.63;;;;;;;2.87;100.00;100860.04;1727077;82;20993;-59
2022/12/21 11:37:46;;;;;;;10.75;6.67;;;;;;;2.92;100.00;100856.66;1727820;82;21267;-61
2022/12/21 11:40:17;;;;;;;12.93;7.05;;;;;;;2.98;100.00;100854.88;1727808;82;21247;-59
2022/12/21 11:43:02;;;;;;;11.43;7.00;;;;;;;3.00;100.00;100864.61;1727571;82;21068;-59
2022/12/21 11:46:06;;;;;;;9.03;5.72;;;;;;;2.99;100.00;100861.66;1727294;82;21045;-59
2022/12/21 11:49:09;;;;;;;10.03;5.97;;;;;;;3.01;100.00;100862.38;1728166;82;21286;-59
2022/12/21 11:51:50;;;;;;;10.10;6.35;;;;;;;3.00;100.00;100864.61;1726807;82;21115;-58
2022/12/21 11:54:45;;;;;;;10.65;6.45;;;;;;;2.99;100.00;100861.66;1727367;82;20982;-60